Latest Weather Observations for Redesdale

IDV60801

Issued at 6:52 pm EST Wednesday 19 September 2018 (issued every 10 minutes, with the page automatically refreshed every 10 minutes)

About weather observations | Map of weather stations | Latest weather observations for VIC | Other Formats
Station Details ID: 088051 Name: REDESDALE Lat: -37.02 Lon: 144.52 Height: 290.0 m
Data from the previous 72 hours. | See also: Recent months at Redesdale
Date/Time
EST
Temp
°C
App
Temp
°C
Dew
Point
°C
Rel
Hum
%
Delta-T
°C
Wind Press
QNH
hPa
Press
MSL
hPa
Rain since
9am
mm
Dir  Spd
km/h
Gust
km/h
Spd
kts
Gust
kts
19/06:30pm 8.5 4.4 2.1 64 2.7 S 13 19 7 10 - - 0.0
19/06:00pm 9.9 6.7 0.8 53 3.8 SW 7 9 4 5 - - 0.0
19/05:30pm 10.9 7.3 0.9 50 4.2 SW 9 17 5 9 - - 0.0
19/05:00pm 12.3 7.9 2.5 51 4.3 SSW 15 22 8 12 - - 0.0
19/04:30pm 13.3 9.1 1.6 45 5.1 SW 13 22 7 12 - - 0.0
19/04:00pm 14.3 10.2 2.2 44 5.4 SW 13 20 7 11 - - 0.0
19/03:30pm 12.6 8.3 1.0 45 5.0 WSW 13 20 7 11 - - 0.0
19/03:00pm 14.7 10.5 1.6 41 5.8 W 13 24 7 13 - - 0.0
19/02:30pm 12.5 7.8 1.2 46 4.9 W 15 30 8 16 - - 0.0
19/02:00pm 14.0 9.7 1.3 42 5.6 W 13 22 7 12 - - 0.0
19/01:30pm 11.7 7.3 2.5 53 4.0 SW 15 26 8 14 - - 0.0
19/01:00pm 13.1 9.7 4.0 54 4.2 SW 11 20 6 11 - - 0.0
19/12:30pm 12.9 8.7 1.6 46 4.9 WSW 13 24 7 13 - - 0.0
19/12:00pm 11.9 8.2 2.4 52 4.2 WSW 11 22 6 12 - - 0.0
19/11:30am 10.8 8.2 3.4 60 3.3 SW 6 9 3 5 - - 0.0
19/11:00am 11.4 8.4 3.9 60 3.4 SW 9 17 5 9 - - 0.0
19/10:30am 9.7 6.8 2.6 61 3.1 WSW 7 15 4 8 - - 0.0
19/10:00am 10.5 7.7 5.1 69 2.5 SW 9 19 5 10 - - 0.0
19/09:30am 8.7 5.2 3.7 71 2.2 SW 11 19 6 10 - - 0.0
19/09:00am 7.6 4.5 3.6 76 1.7 SW 9 17 5 9 - - 1.6
19/08:30am 7.1 3.7 3.9 80 1.4 SW 11 19 6 10 - - 1.6
19/08:00am 7.1 4.0 3.7 79 1.5 SW 9 20 5 11 - - 1.6
19/07:30am 6.1 3.9 5.1 93 0.4 W 6 13 3 7 - - 1.6
19/07:00am 4.8 2.8 4.4 97 0.2 W 4 4 2 2 - - 1.6
19/06:30am 4.4 2.7 4.0 97 0.2 W 2 6 1 3 - - 1.6
19/06:00am 4.2 2.5 3.8 97 0.2 W 2 6 1 3 - - 1.6
19/05:30am 3.8 1.6 3.4 97 0.2 WSW 4 7 2 4 - - 1.6
19/05:00am 3.4 1.1 2.8 96 0.2 NW 4 4 2 2 - - 1.6
19/04:30am 2.9 1.3 2.2 95 0.3 CALM 0 0 0 0 - - 1.6
19/04:00am 3.6 2.0 2.7 94 0.4 CALM 0 0 0 0 - - 1.6
19/03:30am 4.3 2.9 3.3 93 0.4 CALM 0 0 0 0 - - 1.6
19/03:00am 4.5 2.3 3.2 91 0.5 NW 4 4 2 2 - - 1.6
19/02:30am 5.0 2.7 3.0 87 0.8 NW 4 6 2 3 - - 1.6
19/02:00am 5.8 3.1 3.8 87 0.9 W 7 11 4 6 - - 1.6
19/01:30am 5.8 3.3 3.5 85 1.0 WNW 6 13 3 7 - - 1.6
19/01:00am 5.7 3.1 3.2 84 1.1 W 6 9 3 5 - - 1.6
19/12:30am 6.0 3.4 3.2 82 1.2 WSW 6 7 3 4 - - 1.6
19/12:00am 7.6 5.6 4.2 79 1.5 NW 4 7 2 4 - - 1.6
 
Date/Time
EST
Temp
°C
App
Temp
°C
Dew
Point
°C
Rel
Hum
%
Delta-T
°C
Wind Press
QNH
hPa
Press
MSL
hPa
Rain since
9am
mm
Dir  Spd
km/h
Gust
km/h
Spd
kts
Gust
kts
18/11:30pm 8.4 6.0 5.2 80 1.5 NNW 7 9 4 5 - - 1.6
18/11:00pm 9.0 6.1 4.8 75 1.9 W 9 15 5 8 - - 1.6
18/10:30pm 9.0 6.4 5.9 81 1.4 WNW 9 19 5 10 - - 1.6
18/10:00pm 7.8 6.0 5.6 86 1.0 WNW 4 7 2 4 - - 1.6
18/09:30pm 7.6 5.4 5.4 86 1.0 NW 6 9 3 5 - - 1.6
18/09:00pm 7.6 5.8 5.4 86 1.0 N 4 6 2 3 - - 1.6
18/08:30pm 7.7 5.5 5.3 85 1.1 NNE 6 7 3 4 - - 1.6
18/08:00pm 8.5 6.1 5.4 81 1.4 N 7 11 4 6 - - 1.6
18/07:30pm 8.6 6.3 5.5 81 1.4 N 7 9 4 5 - - 1.6
18/07:00pm 9.7 7.1 6.2 79 1.6 N 9 15 5 8 - - 1.6
18/06:30pm 10.3 7.5 6.8 79 1.7 NNW 11 20 6 11 - - 1.6
18/06:00pm 10.6 6.5 7.7 82 1.4 NNW 19 32 10 17 - - 1.6
18/05:30pm 10.5 8.7 7.9 84 1.3 WNW 7 15 4 8 - - 1.0
18/05:00pm 11.0 9.1 7.7 80 1.6 WNW 7 15 4 8 - - 0.6
18/04:30pm 11.7 7.8 7.0 73 2.3 W 17 32 9 17 - - 0.2
18/04:00pm 16.1 12.5 3.2 42 6.0 W 11 28 6 15 - - 0.0
18/03:30pm 16.6 12.0 -1.0 30 7.5 NNW 13 20 7 11 - - 0.0
18/03:00pm 16.2 10.6 -2.8 27 7.8 NNW 17 28 9 15 - - 0.0
18/02:30pm 16.6 10.5 -2.5 27 7.9 NNW 20 35 11 19 - - 0.0
18/02:00pm 16.6 9.7 -3.0 26 8.0 NNW 24 41 13 22 - - 0.0
18/01:30pm 16.6 8.8 -3.5 25 8.1 NNW 28 41 15 22 - - 0.0
18/01:00pm 17.9 10.6 -2.9 24 8.6 N 26 39 14 21 - - 0.0
18/12:38pm 16.6 8.7 -4.6 23 8.4 NNW 28 46 15 25 - - 0.0
18/12:30pm 16.9 9.2 -3.2 25 8.2 N 28 39 15 21 - - 0.0
18/12:00pm 16.9 11.1 -1.7 28 7.8 N 19 32 10 17 - - 0.0
18/11:30am 16.5 11.1 -1.1 30 7.5 N 17 24 9 13 - - 0.0
18/11:00am 16.5 10.8 -0.7 31 7.4 N 19 28 10 15 - - 0.0
18/10:30am 14.8 9.5 -0.5 35 6.5 N 17 24 9 13 - - 0.0
18/10:00am 13.4 8.0 -1.0 37 6.0 N 17 24 9 13 - - 0.0
18/09:30am 12.1 7.7 0.2 44 5.0 NNE 13 22 7 12 - - 0.0
18/09:00am 10.6 6.4 -0.8 45 4.6 NNE 11 19 6 10 - - 0.0
18/08:30am 9.9 6.8 0.0 50 4.0 NE 6 11 3 6 - - -
18/08:00am 8.4 5.3 0.4 57 3.2 E 6 9 3 5 - - -
18/07:30am 5.8 2.6 0.8 70 2.0 ESE 7 9 4 5 - - -
18/07:00am 1.1 -2.2 -1.3 84 0.9 ESE 6 9 3 5 - - -
18/06:30am 0.6 -3.0 -2.1 82 1.0 ESE 7 9 4 5 - - -
18/06:00am 0.1 -3.4 -2.6 82 0.9 E 6 9 3 5 - - -
18/05:30am 0.2 -2.8 -2.2 84 0.8 ENE 4 6 2 3 - - -
18/05:00am 0.4 -2.6 -2.1 83 0.9 ENE 4 6 2 3 - - -
18/04:30am 1.3 -2.1 -1.9 79 1.1 ENE 6 9 3 5 - - -
18/04:00am 2.1 -0.1 -1.5 77 1.3 CALM 0 2 0 1 - - -
18/03:30am 1.6 -1.4 -1.8 78 1.2 NW 4 4 2 2 - - -
18/03:00am 2.4 -0.6 -1.6 75 1.4 NW 4 4 2 2 - - 0.0
18/02:30am 3.6 1.4 -1.5 69 1.9 CALM 0 2 0 1 - - -
18/02:00am 4.8 2.6 -1.2 65 2.3 CALM 0 2 0 1 - - -
18/01:30am 5.1 2.2 -0.9 65 2.3 NW 4 4 2 2 - - -
18/01:00am 4.4 1.3 0.0 73 1.7 NW 6 7 3 4 - - -
18/12:30am 4.3 1.6 0.1 74 1.6 NNE 4 4 2 2 - - -
18/12:00am 5.5 3.6 0.3 69 2.0 CALM 0 2 0 1 - - -
 
Date/Time
EST
Temp
°C
App
Temp
°C
Dew
Point
°C
Rel
Hum
%
Delta-T
°C
Wind Press
QNH
hPa
Press
MSL
hPa
Rain since
9am
mm
Dir  Spd
km/h
Gust
km/h
Spd
kts
Gust
kts
17/11:30pm 6.8 4.0 -0.4 60 2.8 NNE 4 6 2 3 - - -
17/11:00pm 9.1 6.0 0.3 54 3.6 NE 6 7 3 4 - - -
17/10:30pm 9.0 5.9 0.2 54 3.6 NNE 6 9 3 5 - - -
17/10:00pm 9.1 6.1 0.6 55 3.5 NNE 6 9 3 5 - - -
17/09:30pm 8.9 5.7 0.6 56 3.4 NNE 7 9 4 5 - - -
17/09:00pm 9.4 6.4 0.6 54 3.6 NNE 6 9 3 5 - - -
17/08:30pm 10.0 7.0 0.9 53 3.8 NNE 6 9 3 5 - - -
17/08:00pm 9.9 6.9 0.8 53 3.8 NNE 6 9 3 5 - - -
17/07:30pm 10.2 7.0 0.5 51 4.0 NNE 7 9 4 5 - - -
17/07:00pm 10.8 7.7 0.2 48 4.4 NNE 6 9 3 5 - - -
17/06:30pm 11.7 7.6 -0.1 44 4.9 N 11 17 6 9 - - -
17/06:00pm 13.0 8.1 -0.3 40 5.6 N 15 24 8 13 - - -
17/05:30pm 13.3 8.5 0.0 40 5.6 N 15 22 8 12 - - -
17/05:00pm 14.4 8.8 -0.1 37 6.2 N 19 33 10 18 - - -
17/04:30pm 15.0 10.3 0.8 38 6.2 N 15 24 8 13 - - -
17/03:00pm 16.3 10.7 1.2 36 6.7 NNW 20 - 11 - - - -
17/02:30pm 15.9 10.3 0.9 36 6.6 N 20 33 11 18 - - 0.0
17/02:00pm 16.1 10.5 1.4 37 6.6 N 20 28 11 15 - - 0.0
17/01:30pm 15.7 10.4 1.8 39 6.2 N 19 30 10 16 - - 0.0
17/01:00pm 15.8 10.0 2.2 40 6.2 NNW 22 32 12 17 - - 0.0
17/12:30pm 15.0 9.7 2.9 44 5.5 N 20 30 11 16 - - 0.0
17/12:00pm 15.0 9.6 2.5 43 5.7 NNW 20 33 11 18 - - 0.0
17/11:30am 14.3 8.9 2.5 45 5.3 N 20 33 11 18 - - 0.0
17/11:00am 13.9 8.8 3.9 51 4.6 N 20 28 11 15 - - 0.0
17/10:30am 13.1 8.8 3.5 52 4.4 N 15 22 8 12 - - 0.0
17/10:00am 11.1 8.4 3.6 60 3.4 NNE 7 11 4 6 - - 0.0
17/09:30am 10.3 7.6 3.8 64 2.9 N 7 11 4 6 - - 0.0
17/09:00am 8.6 5.9 2.6 66 2.6 N 6 9 3 5 - - 0.0
17/08:30am 6.9 4.1 2.2 72 2.0 N 6 9 3 5 - - 0.0
17/08:00am 6.0 3.7 3.0 81 1.3 ENE 4 6 2 3 - - 0.0
17/07:30am 3.1 1.1 2.1 93 0.4 SE 2 4 1 2 - - 0.0
17/07:00am 2.5 0.0 1.6 94 0.4 SSW 4 6 2 3 - - 0.0
17/06:30am 2.5 0.0 1.6 94 0.4 SSW 4 6 2 3 - - 0.0
17/06:00am 1.8 -1.2 1.1 95 0.3 S 6 7 3 4 - - 0.0
17/05:30am 1.3 -1.4 0.6 95 0.3 SSE 4 7 2 4 - - 0.0
17/05:00am 0.3 -2.9 -0.4 95 0.3 SSW 6 9 3 5 - - 0.0
17/04:30am -0.9 -4.4 -1.6 95 0.2 SSW 7 7 4 4 - - 0.0
17/04:00am -0.8 -4.1 -1.5 95 0.2 SSW 6 7 3 4 - - 0.0
17/03:30am -0.6 -3.9 -1.4 94 0.3 SSW 6 7 3 4 - - 0.0
17/03:00am -0.3 -3.8 -1.1 94 0.3 SSW 7 9 4 5 - - 0.0
17/02:30am -0.3 -3.2 -1.3 93 0.3 SSW 4 6 2 3 - - 0.0
17/02:00am 0.2 -2.3 -0.9 92 0.4 SSW 2 4 1 2 - - 0.0
17/01:30am 0.7 -2.5 -0.4 92 0.4 SSW 6 7 3 4 - - 0.0
17/01:00am 1.4 -1.7 0.2 92 0.4 SSW 6 7 3 4 - - 0.0
17/12:30am 1.9 -0.3 1.0 94 0.3 SSW 2 4 1 2 - - 0.0
17/12:00am 0.8 -2.4 -0.2 93 0.4 SSW 6 7 3 4 - - 0.0
 
Date/Time
EST
Temp
°C
App
Temp
°C
Dew
Point
°C
Rel
Hum
%
Delta-T
°C
Wind Press
QNH
hPa
Press
MSL
hPa
Rain since
9am
mm
Dir  Spd
km/h
Gust
km/h
Spd
kts
Gust
kts
16/11:30pm 0.1 -3.4 -1.0 92 0.4 SSW 7 9 4 5 - - 0.0
16/11:00pm 0.0 -3.3 -1.3 91 0.5 S 6 9 3 5 - - 0.0
16/10:30pm 0.6 -2.6 -0.8 90 0.5 S 6 7 3 4 - - 0.0
16/10:00pm 1.3 -1.9 -0.2 90 0.6 S 6 7 3 4 - - 0.0
16/09:30pm 1.1 -2.1 -0.7 88 0.7 SSW 6 9 3 5 - - 0.0
16/09:00pm 2.0 -0.7 0.1 87 0.7 WSW 4 4 2 2 - - 0.0
16/08:30pm 3.1 0.4 0.2 81 1.1 WSW 4 4 2 2 - - 0.0
16/08:00pm 4.3 2.0 0.5 76 1.5 WSW 2 4 1 2 - - 0.0
16/07:30pm 5.5 3.2 0.5 70 2.0 WNW 2 2 1 1 - - 0.0
16/07:00pm 7.5 4.9 1.1 64 2.6 WNW 4 6 2 3 - - 0.0

Other Formats:

Comma delimited format used in spreadsheet applications
http://www.bom.gov.au/fwo/IDV60801/IDV60801.94859.axf

JavaScript Object Notation format (JSON) in row-major order
http://www.bom.gov.au/fwo/IDV60801/IDV60801.94859.json